sensor_id;sensor_type;location;lat;lon;timestamp;P1;durP1;ratioP1;P2;durP2;ratioP2
20026;SDS011;10174;42.688;23.344;2022-09-09T00:01:54;22.70;;;14.05;;
20026;SDS011;10174;42.688;23.344;2022-09-09T00:14:55;24.73;;;15.18;;
20026;SDS011;10174;42.688;23.344;2022-09-09T00:19:59;26.42;;;16.52;;
20026;SDS011;10174;42.688;23.344;2022-09-09T00:22:30;25.27;;;16.63;;
20026;SDS011;10174;42.688;23.344;2022-09-09T00:25:02;20.63;;;16.00;;
20026;SDS011;10174;42.688;23.344;2022-09-09T00:27:48;29.77;;;16.85;;
20026;SDS011;10174;42.688;23.344;2022-09-09T00:30:34;27.98;;;17.00;;
20026;SDS011;10174;42.688;23.344;2022-09-09T00:33:01;31.95;;;16.65;;
20026;SDS011;10174;42.688;23.344;2022-09-09T00:35:37;26.35;;;16.88;;
20026;SDS011;10174;42.688;23.344;2022-09-09T00:38:13;25.77;;;16.58;;
20026;SDS011;10174;42.688;23.344;2022-09-09T00:43:30;24.63;;;16.90;;
20026;SDS011;10174;42.688;23.344;2022-09-09T01:08:33;30.77;;;18.75;;
20026;SDS011;10174;42.688;23.344;2022-09-09T01:11:25;29.27;;;18.35;;
20026;SDS011;10174;42.688;23.344;2022-09-09T01:14:10;31.95;;;18.25;;
20026;SDS011;10174;42.688;23.344;2022-09-09T01:16:43;30.55;;;19.05;;
20026;SDS011;10174;42.688;23.344;2022-09-09T01:19:10;31.05;;;19.35;;
20026;SDS011;10174;42.688;23.344;2022-09-09T01:21:54;32.28;;;18.75;;
20026;SDS011;10174;42.688;23.344;2022-09-09T01:27:01;32.97;;;19.38;;
20026;SDS011;10174;42.688;23.344;2022-09-09T01:29:29;32.53;;;19.83;;
20026;SDS011;10174;42.688;23.344;2022-09-09T01:34:22;29.30;;;19.58;;
20026;SDS011;10174;42.688;23.344;2022-09-09T01:37:10;33.53;;;19.13;;
20026;SDS011;10174;42.688;23.344;2022-09-09T01:39:37;31.88;;;18.75;;
20026;SDS011;10174;42.688;23.344;2022-09-09T01:42:06;34.85;;;20.20;;
20026;SDS011;10174;42.688;23.344;2022-09-09T01:44:34;30.52;;;19.45;;
20026;SDS011;10174;42.688;23.344;2022-09-09T01:47:00;28.65;;;18.75;;
20026;SDS011;10174;42.688;23.344;2022-09-09T01:49:27;29.27;;;20.08;;
20026;SDS011;10174;42.688;23.344;2022-09-09T01:54:22;33.53;;;20.27;;
20026;SDS011;10174;42.688;23.344;2022-09-09T02:02:19;29.42;;;19.60;;
20026;SDS011;10174;42.688;23.344;2022-09-09T02:07:50;30.15;;;19.70;;
20026;SDS011;10174;42.688;23.344;2022-09-09T02:10:23;31.75;;;20.85;;
20026;SDS011;10174;42.688;23.344;2022-09-09T02:12:55;36.42;;;19.55;;
20026;SDS011;10174;42.688;23.344;2022-09-09T02:15:36;33.05;;;19.70;;
20026;SDS011;10174;42.688;23.344;2022-09-09T02:18:11;29.63;;;20.10;;
20026;SDS011;10174;42.688;23.344;2022-09-09T02:20:38;28.30;;;19.90;;
20026;SDS011;10174;42.688;23.344;2022-09-09T02:23:05;35.40;;;20.63;;
20026;SDS011;10174;42.688;23.344;2022-09-09T02:25:33;35.50;;;20.70;;
20026;SDS011;10174;42.688;23.344;2022-09-09T02:28:01;31.38;;;20.13;;
20026;SDS011;10174;42.688;23.344;2022-09-09T02:30:32;35.35;;;21.08;;
20026;SDS011;10174;42.688;23.344;2022-09-09T02:32:59;32.53;;;20.08;;
20026;SDS011;10174;42.688;23.344;2022-09-09T02:35:28;30.63;;;20.15;;
20026;SDS011;10174;42.688;23.344;2022-09-09T02:37:58;31.75;;;20.75;;
20026;SDS011;10174;42.688;23.344;2022-09-09T02:40:29;34.85;;;20.30;;
20026;SDS011;10174;42.688;23.344;2022-09-09T02:42:54;33.60;;;21.05;;
20026;SDS011;10174;42.688;23.344;2022-09-09T02:50:53;35.35;;;22.20;;
20026;SDS011;10174;42.688;23.344;2022-09-09T02:53:26;39.03;;;21.67;;
20026;SDS011;10174;42.688;23.344;2022-09-09T02:56:05;31.02;;;21.17;;
20026;SDS011;10174;42.688;23.344;2022-09-09T02:58:35;42.22;;;25.10;;
20026;SDS011;10174;42.688;23.344;2022-09-09T03:01:01;35.70;;;21.35;;
20026;SDS011;10174;42.688;23.344;2022-09-09T03:03:28;35.28;;;21.88;;
20026;SDS011;10174;42.688;23.344;2022-09-09T03:05:54;34.85;;;21.65;;
20026;SDS011;10174;42.688;23.344;2022-09-09T03:08:19;35.88;;;20.55;;
20026;SDS011;10174;42.688;23.344;2022-09-09T03:10:45;35.60;;;21.25;;
20026;SDS011;10174;42.688;23.344;2022-09-09T03:15:37;31.38;;;21.15;;
20026;SDS011;10174;42.688;23.344;2022-09-09T03:18:03;41.38;;;21.40;;
20026;SDS011;10174;42.688;23.344;2022-09-09T03:20:28;33.42;;;22.10;;
20026;SDS011;10174;42.688;23.344;2022-09-09T03:22:55;37.67;;;21.95;;
20026;SDS011;10174;42.688;23.344;2022-09-09T03:25:22;36.10;;;22.38;;
20026;SDS011;10174;42.688;23.344;2022-09-09T03:27:51;35.72;;;22.05;;
20026;SDS011;10174;42.688;23.344;2022-09-09T03:30:19;33.15;;;21.15;;
20026;SDS011;10174;42.688;23.344;2022-09-09T03:32:49;33.25;;;21.65;;
20026;SDS011;10174;42.688;23.344;2022-09-09T03:35:14;42.13;;;22.30;;
20026;SDS011;10174;42.688;23.344;2022-09-09T03:37:40;35.38;;;20.98;;
20026;SDS011;10174;42.688;23.344;2022-09-09T03:42:33;41.63;;;22.52;;
20026;SDS011;10174;42.688;23.344;2022-09-09T03:44:58;43.05;;;22.98;;
20026;SDS011;10174;42.688;23.344;2022-09-09T03:47:24;39.40;;;22.17;;
20026;SDS011;10174;42.688;23.344;2022-09-09T03:49:50;49.30;;;23.25;;
20026;SDS011;10174;42.688;23.344;2022-09-09T03:54:41;40.95;;;23.42;;
20026;SDS011;10174;42.688;23.344;2022-09-09T03:57:07;41.45;;;23.67;;
20026;SDS011;10174;42.688;23.344;2022-09-09T03:59:33;41.40;;;22.90;;
20026;SDS011;10174;42.688;23.344;2022-09-09T04:02:00;47.15;;;24.77;;
20026;SDS011;10174;42.688;23.344;2022-09-09T04:06:51;48.15;;;23.77;;
20026;SDS011;10174;42.688;23.344;2022-09-09T04:09:17;43.03;;;23.70;;
20026;SDS011;10174;42.688;23.344;2022-09-09T04:11:43;50.13;;;25.88;;
20026;SDS011;10174;42.688;23.344;2022-09-09T04:16:34;48.47;;;23.73;;
20026;SDS011;10174;42.688;23.344;2022-09-09T04:19:02;45.88;;;25.25;;
20026;SDS011;10174;42.688;23.344;2022-09-09T04:21:29;46.65;;;24.40;;
20026;SDS011;10174;42.688;23.344;2022-09-09T04:23:55;44.35;;;23.83;;
20026;SDS011;10174;42.688;23.344;2022-09-09T04:28:45;51.38;;;24.30;;
20026;SDS011;10174;42.688;23.344;2022-09-09T04:31:15;48.90;;;25.67;;
20026;SDS011;10174;42.688;23.344;2022-09-09T04:33:43;48.67;;;27.10;;
20026;SDS011;10174;42.688;23.344;2022-09-09T04:38:34;45.25;;;23.90;;
20026;SDS011;10174;42.688;23.344;2022-09-09T04:41:00;47.65;;;24.50;;
20026;SDS011;10174;42.688;23.344;2022-09-09T04:43:26;54.20;;;25.77;;
20026;SDS011;10174;42.688;23.344;2022-09-09T04:48:17;46.78;;;23.10;;
20026;SDS011;10174;42.688;23.344;2022-09-09T04:50:43;44.17;;;23.83;;
20026;SDS011;10174;42.688;23.344;2022-09-09T04:53:09;42.47;;;23.52;;
20026;SDS011;10174;42.688;23.344;2022-09-09T04:55:34;47.72;;;24.52;;
20026;SDS011;10174;42.688;23.344;2022-09-09T05:00:33;40.97;;;23.65;;
20026;SDS011;10174;42.688;23.344;2022-09-09T05:03:03;40.83;;;22.95;;
20026;SDS011;10174;42.688;23.344;2022-09-09T05:05:30;44.75;;;23.23;;
20026;SDS011;10174;42.688;23.344;2022-09-09T05:08:00;45.75;;;22.65;;
20026;SDS011;10174;42.688;23.344;2022-09-09T05:10:27;52.05;;;24.55;;
20026;SDS011;10174;42.688;23.344;2022-09-09T05:12:53;54.78;;;23.73;;
20026;SDS011;10174;42.688;23.344;2022-09-09T05:15:19;48.05;;;22.67;;
20026;SDS011;10174;42.688;23.344;2022-09-09T05:17:45;42.00;;;21.55;;
20026;SDS011;10174;42.688;23.344;2022-09-09T05:20:11;37.22;;;21.02;;
20026;SDS011;10174;42.688;23.344;2022-09-09T05:22:37;35.17;;;20.45;;
20026;SDS011;10174;42.688;23.344;2022-09-09T05:25:02;36.33;;;21.30;;
20026;SDS011;10174;42.688;23.344;2022-09-09T05:27:28;38.03;;;20.30;;
20026;SDS011;10174;42.688;23.344;2022-09-09T05:29:56;35.08;;;20.67;;
20026;SDS011;10174;42.688;23.344;2022-09-09T05:32:22;34.60;;;20.27;;
20026;SDS011;10174;42.688;23.344;2022-09-09T05:34:48;34.25;;;23.23;;
20026;SDS011;10174;42.688;23.344;2022-09-09T05:37:13;39.83;;;21.95;;
20026;SDS011;10174;42.688;23.344;2022-09-09T05:39:39;29.98;;;20.40;;
20026;SDS011;10174;42.688;23.344;2022-09-09T05:42:04;30.92;;;19.45;;
20026;SDS011;10174;42.688;23.344;2022-09-09T05:44:30;33.38;;;19.52;;
20026;SDS011;10174;42.688;23.344;2022-09-09T05:46:56;39.17;;;20.05;;
20026;SDS011;10174;42.688;23.344;2022-09-09T05:49:22;37.42;;;20.00;;
20026;SDS011;10174;42.688;23.344;2022-09-09T05:51:48;33.85;;;20.48;;
20026;SDS011;10174;42.688;23.344;2022-09-09T05:54:15;37.65;;;19.33;;
20026;SDS011;10174;42.688;23.344;2022-09-09T05:56:41;29.02;;;18.75;;
20026;SDS011;10174;42.688;23.344;2022-09-09T05:59:06;32.63;;;18.13;;
20026;SDS011;10174;42.688;23.344;2022-09-09T06:01:32;28.95;;;19.27;;
20026;SDS011;10174;42.688;23.344;2022-09-09T06:03:59;37.05;;;21.52;;
20026;SDS011;10174;42.688;23.344;2022-09-09T06:06:25;32.97;;;19.08;;
20026;SDS011;10174;42.688;23.344;2022-09-09T06:08:54;26.30;;;15.85;;
20026;SDS011;10174;42.688;23.344;2022-09-09T06:11:27;30.88;;;16.27;;
20026;SDS011;10174;42.688;23.344;2022-09-09T06:13:57;21.83;;;15.52;;
20026;SDS011;10174;42.688;23.344;2022-09-09T06:16:24;34.75;;;18.85;;
20026;SDS011;10174;42.688;23.344;2022-09-09T06:18:51;18.23;;;12.18;;
20026;SDS011;10174;42.688;23.344;2022-09-09T06:21:19;22.30;;;11.20;;
20026;SDS011;10174;42.688;23.344;2022-09-09T06:23:47;22.77;;;11.10;;
20026;SDS011;10174;42.688;23.344;2022-09-09T06:28:38;22.05;;;10.30;;
20026;SDS011;10174;42.688;23.344;2022-09-09T06:31:04;24.27;;;10.90;;
20026;SDS011;10174;42.688;23.344;2022-09-09T06:33:35;28.98;;;11.70;;
20026;SDS011;10174;42.688;23.344;2022-09-09T06:36:05;22.88;;;10.93;;
20026;SDS011;10174;42.688;23.344;2022-09-09T06:38:31;21.05;;;11.07;;
20026;SDS011;10174;42.688;23.344;2022-09-09T06:40:58;23.27;;;10.98;;
20026;SDS011;10174;42.688;23.344;2022-09-09T06:43:25;16.67;;;9.90;;
20026;SDS011;10174;42.688;23.344;2022-09-09T06:45:55;23.27;;;11.15;;
20026;SDS011;10174;42.688;23.344;2022-09-09T06:48:24;28.45;;;12.48;;
20026;SDS011;10174;42.688;23.344;2022-09-09T06:53:32;17.63;;;10.10;;
20026;SDS011;10174;42.688;23.344;2022-09-09T06:55:59;16.55;;;8.95;;
20026;SDS011;10174;42.688;23.344;2022-09-09T06:58:28;11.13;;;7.65;;
20026;SDS011;10174;42.688;23.344;2022-09-09T07:01:01;18.83;;;8.20;;
20026;SDS011;10174;42.688;23.344;2022-09-09T07:03:31;25.90;;;9.43;;
20026;SDS011;10174;42.688;23.344;2022-09-09T07:05:57;21.08;;;8.60;;
20026;SDS011;10174;42.688;23.344;2022-09-09T07:08:23;11.82;;;7.45;;
20026;SDS011;10174;42.688;23.344;2022-09-09T07:10:50;16.95;;;8.55;;
20026;SDS011;10174;42.688;23.344;2022-09-09T07:13:18;29.35;;;14.73;;
20026;SDS011;10174;42.688;23.344;2022-09-09T07:15:52;13.95;;;8.20;;
20026;SDS011;10174;42.688;23.344;2022-09-09T07:18:19;18.02;;;8.35;;
20026;SDS011;10174;42.688;23.344;2022-09-09T07:20:54;21.35;;;12.25;;
20026;SDS011;10174;42.688;23.344;2022-09-09T07:23:22;19.73;;;7.45;;
20026;SDS011;10174;42.688;23.344;2022-09-09T07:25:48;18.23;;;8.20;;
20026;SDS011;10174;42.688;23.344;2022-09-09T07:28:15;16.88;;;8.60;;
20026;SDS011;10174;42.688;23.344;2022-09-09T07:30:40;26.77;;;8.18;;
20026;SDS011;10174;42.688;23.344;2022-09-09T07:33:07;14.27;;;8.00;;
20026;SDS011;10174;42.688;23.344;2022-09-09T07:35:34;50.88;;;10.70;;
20026;SDS011;10174;42.688;23.344;2022-09-09T07:38:01;21.05;;;8.07;;
20026;SDS011;10174;42.688;23.344;2022-09-09T07:40:29;16.73;;;8.25;;
20026;SDS011;10174;42.688;23.344;2022-09-09T07:42:55;15.20;;;9.13;;
20026;SDS011;10174;42.688;23.344;2022-09-09T07:45:21;14.40;;;7.45;;
20026;SDS011;10174;42.688;23.344;2022-09-09T07:47:46;11.35;;;6.82;;
20026;SDS011;10174;42.688;23.344;2022-09-09T07:50:13;15.15;;;7.07;;
20026;SDS011;10174;42.688;23.344;2022-09-09T07:52:38;17.27;;;8.00;;
20026;SDS011;10174;42.688;23.344;2022-09-09T07:55:04;22.58;;;11.10;;
20026;SDS011;10174;42.688;23.344;2022-09-09T07:57:29;17.00;;;9.27;;
20026;SDS011;10174;42.688;23.344;2022-09-09T07:59:56;20.38;;;8.60;;
20026;SDS011;10174;42.688;23.344;2022-09-09T08:02:25;11.20;;;6.75;;
20026;SDS011;10174;42.688;23.344;2022-09-09T08:04:52;17.02;;;7.47;;
20026;SDS011;10174;42.688;23.344;2022-09-09T08:07:18;82.88;;;10.45;;
20026;SDS011;10174;42.688;23.344;2022-09-09T08:09:46;10.40;;;6.45;;
20026;SDS011;10174;42.688;23.344;2022-09-09T08:12:11;12.75;;;6.47;;
20026;SDS011;10174;42.688;23.344;2022-09-09T08:14:38;10.43;;;6.88;;
20026;SDS011;10174;42.688;23.344;2022-09-09T08:17:04;19.77;;;10.55;;
20026;SDS011;10174;42.688;23.344;2022-09-09T08:19:29;9.50;;;6.60;;
20026;SDS011;10174;42.688;23.344;2022-09-09T08:21:55;14.68;;;6.45;;
20026;SDS011;10174;42.688;23.344;2022-09-09T08:24:20;17.42;;;7.72;;
20026;SDS011;10174;42.688;23.344;2022-09-09T08:26:48;15.30;;;7.15;;
20026;SDS011;10174;42.688;23.344;2022-09-09T08:29:14;14.52;;;6.38;;
20026;SDS011;10174;42.688;23.344;2022-09-09T08:31:47;17.52;;;6.75;;
20026;SDS011;10174;42.688;23.344;2022-09-09T08:34:14;11.80;;;6.20;;
20026;SDS011;10174;42.688;23.344;2022-09-09T08:36:43;16.20;;;8.00;;
20026;SDS011;10174;42.688;23.344;2022-09-09T08:39:10;17.42;;;7.53;;
20026;SDS011;10174;42.688;23.344;2022-09-09T08:53:00;15.15;;;7.63;;
20026;SDS011;10174;42.688;23.344;2022-09-09T08:55:48;18.27;;;8.98;;
20026;SDS011;10174;42.688;23.344;2022-09-09T08:57:58;14.40;;;6.80;;
20026;SDS011;10174;42.688;23.344;2022-09-09T09:11:37;23.75;;;7.47;;
20026;SDS011;10174;42.688;23.344;2022-09-09T09:14:12;18.50;;;7.15;;
20026;SDS011;10174;42.688;23.344;2022-09-09T09:16:49;15.30;;;7.65;;
20026;SDS011;10174;42.688;23.344;2022-09-09T09:19:19;13.60;;;7.25;;
20026;SDS011;10174;42.688;23.344;2022-09-09T09:21:50;14.38;;;7.50;;
20026;SDS011;10174;42.688;23.344;2022-09-09T09:24:19;18.95;;;7.78;;
20026;SDS011;10174;42.688;23.344;2022-09-09T09:26:47;12.88;;;7.72;;
20026;SDS011;10174;42.688;23.344;2022-09-09T09:29:14;15.23;;;7.32;;
20026;SDS011;10174;42.688;23.344;2022-09-09T09:32:02;16.38;;;6.95;;
20026;SDS011;10174;42.688;23.344;2022-09-09T09:34:29;17.50;;;8.77;;
20026;SDS011;10174;42.688;23.344;2022-09-09T09:36:58;15.30;;;7.35;;
20026;SDS011;10174;42.688;23.344;2022-09-09T09:39:30;21.90;;;8.18;;
20026;SDS011;10174;42.688;23.344;2022-09-09T09:42:09;17.67;;;7.63;;
20026;SDS011;10174;42.688;23.344;2022-09-09T09:44:39;12.80;;;7.80;;
20026;SDS011;10174;42.688;23.344;2022-09-09T09:47:15;15.93;;;7.13;;
20026;SDS011;10174;42.688;23.344;2022-09-09T09:50:03;11.55;;;7.32;;
20026;SDS011;10174;42.688;23.344;2022-09-09T09:52:30;11.60;;;6.75;;
20026;SDS011;10174;42.688;23.344;2022-09-09T09:54:57;11.52;;;7.18;;
20026;SDS011;10174;42.688;23.344;2022-09-09T09:57:27;18.15;;;7.35;;
20026;SDS011;10174;42.688;23.344;2022-09-09T10:02:42;20.02;;;8.23;;
20026;SDS011;10174;42.688;23.344;2022-09-09T10:05:14;15.30;;;7.40;;
20026;SDS011;10174;42.688;23.344;2022-09-09T10:10:37;13.98;;;6.72;;
20026;SDS011;10174;42.688;23.344;2022-09-09T10:16:08;15.77;;;7.05;;
20026;SDS011;10174;42.688;23.344;2022-09-09T10:27:19;18.27;;;7.93;;
20026;SDS011;10174;42.688;23.344;2022-09-09T10:33:37;13.75;;;7.18;;
20026;SDS011;10174;42.688;23.344;2022-09-09T10:38:44;12.60;;;7.60;;
20026;SDS011;10174;42.688;23.344;2022-09-09T10:41:18;23.05;;;9.57;;
20026;SDS011;10174;42.688;23.344;2022-09-09T10:56:55;27.05;;;10.50;;
20026;SDS011;10174;42.688;23.344;2022-09-09T11:02:02;23.50;;;10.48;;
20026;SDS011;10174;42.688;23.344;2022-09-09T11:05:14;20.48;;;9.35;;
20026;SDS011;10174;42.688;23.344;2022-09-09T11:10:25;12.43;;;8.60;;
20026;SDS011;10174;42.688;23.344;2022-09-09T11:12:51;17.20;;;9.80;;
20026;SDS011;10174;42.688;23.344;2022-09-09T11:15:31;20.95;;;9.93;;
20026;SDS011;10174;42.688;23.344;2022-09-09T11:18:05;27.30;;;13.95;;
20026;SDS011;10174;42.688;23.344;2022-09-09T11:20:35;23.00;;;9.93;;
20026;SDS011;10174;42.688;23.344;2022-09-09T11:23:03;26.60;;;10.77;;
20026;SDS011;10174;42.688;23.344;2022-09-09T11:25:37;28.80;;;11.15;;
20026;SDS011;10174;42.688;23.344;2022-09-09T11:33:34;17.27;;;9.63;;
20026;SDS011;10174;42.688;23.344;2022-09-09T11:36:28;20.48;;;9.45;;
20026;SDS011;10174;42.688;23.344;2022-09-09T11:39:00;19.13;;;10.05;;
20026;SDS011;10174;42.688;23.344;2022-09-09T11:41:42;26.75;;;10.52;;
20026;SDS011;10174;42.688;23.344;2022-09-09T11:44:10;19.02;;;9.93;;
20026;SDS011;10174;42.688;23.344;2022-09-09T11:46:37;21.60;;;10.32;;
20026;SDS011;10174;42.688;23.344;2022-09-09T11:49:05;18.70;;;9.77;;
20026;SDS011;10174;42.688;23.344;2022-09-09T11:51:32;28.30;;;9.88;;
20026;SDS011;10174;42.688;23.344;2022-09-09T11:54:26;22.23;;;9.75;;
20026;SDS011;10174;42.688;23.344;2022-09-09T11:56:55;20.27;;;10.02;;
20026;SDS011;10174;42.688;23.344;2022-09-09T11:59:31;35.70;;;19.63;;
20026;SDS011;10174;42.688;23.344;2022-09-09T12:02:14;23.15;;;12.13;;
20026;SDS011;10174;42.688;23.344;2022-09-09T12:04:54;15.48;;;9.00;;
20026;SDS011;10174;42.688;23.344;2022-09-09T12:07:38;19.85;;;9.85;;
20026;SDS011;10174;42.688;23.344;2022-09-09T12:12:34;21.83;;;9.48;;
20026;SDS011;10174;42.688;23.344;2022-09-09T12:17:54;22.52;;;8.68;;
20026;SDS011;10174;42.688;23.344;2022-09-09T12:20:32;26.02;;;10.30;;
20026;SDS011;10174;42.688;23.344;2022-09-09T12:23:18;17.30;;;9.68;;
20026;SDS011;10174;42.688;23.344;2022-09-09T12:28:27;24.55;;;9.57;;
20026;SDS011;10174;42.688;23.344;2022-09-09T12:31:23;16.98;;;10.00;;
20026;SDS011;10174;42.688;23.344;2022-09-09T12:34:02;23.80;;;9.88;;
20026;SDS011;10174;42.688;23.344;2022-09-09T12:36:51;23.67;;;10.02;;
20026;SDS011;10174;42.688;23.344;2022-09-09T12:39:26;15.25;;;9.10;;
20026;SDS011;10174;42.688;23.344;2022-09-09T12:42:16;26.67;;;14.27;;
20026;SDS011;10174;42.688;23.344;2022-09-09T12:44:50;24.27;;;13.65;;
20026;SDS011;10174;42.688;23.344;2022-09-09T12:50:25;19.55;;;9.50;;
20026;SDS011;10174;42.688;23.344;2022-09-09T12:52:55;22.70;;;10.23;;
20026;SDS011;10174;42.688;23.344;2022-09-09T12:55:30;33.47;;;10.85;;
20026;SDS011;10174;42.688;23.344;2022-09-09T12:57:58;27.15;;;12.68;;
20026;SDS011;10174;42.688;23.344;2022-09-09T13:00:25;22.23;;;11.05;;
20026;SDS011;10174;42.688;23.344;2022-09-09T13:02:59;28.25;;;13.52;;
20026;SDS011;10174;42.688;23.344;2022-09-09T13:05:39;22.02;;;10.90;;
20026;SDS011;10174;42.688;23.344;2022-09-09T13:08:06;22.02;;;10.73;;
20026;SDS011;10174;42.688;23.344;2022-09-09T13:10:45;21.30;;;11.05;;
20026;SDS011;10174;42.688;23.344;2022-09-09T13:13:21;17.77;;;10.00;;
20026;SDS011;10174;42.688;23.344;2022-09-09T13:15:53;28.33;;;10.75;;
20026;SDS011;10174;42.688;23.344;2022-09-09T13:18:24;21.45;;;10.20;;
20026;SDS011;10174;42.688;23.344;2022-09-09T13:20:51;18.05;;;9.80;;
20026;SDS011;10174;42.688;23.344;2022-09-09T13:23:17;19.40;;;9.73;;
20026;SDS011;10174;42.688;23.344;2022-09-09T13:25:55;18.67;;;10.45;;
20026;SDS011;10174;42.688;23.344;2022-09-09T13:28:28;21.52;;;10.70;;
20026;SDS011;10174;42.688;23.344;2022-09-09T13:30:58;23.55;;;9.40;;
20026;SDS011;10174;42.688;23.344;2022-09-09T13:33:29;20.55;;;9.60;;
20026;SDS011;10174;42.688;23.344;2022-09-09T13:36:08;17.25;;;9.82;;
20026;SDS011;10174;42.688;23.344;2022-09-09T13:38:37;22.88;;;10.38;;
20026;SDS011;10174;42.688;23.344;2022-09-09T13:41:06;36.10;;;17.60;;
20026;SDS011;10174;42.688;23.344;2022-09-09T13:43:38;27.85;;;11.40;;
20026;SDS011;10174;42.688;23.344;2022-09-09T13:49:17;21.27;;;9.65;;
20026;SDS011;10174;42.688;23.344;2022-09-09T13:52:02;16.48;;;10.00;;
20026;SDS011;10174;42.688;23.344;2022-09-09T13:54:34;22.55;;;9.70;;
20026;SDS011;10174;42.688;23.344;2022-09-09T13:57:00;21.80;;;8.93;;
20026;SDS011;10174;42.688;23.344;2022-09-09T13:59:26;23.55;;;10.43;;
20026;SDS011;10174;42.688;23.344;2022-09-09T14:01:52;15.55;;;9.55;;
20026;SDS011;10174;42.688;23.344;2022-09-09T14:04:18;18.98;;;9.73;;
20026;SDS011;10174;42.688;23.344;2022-09-09T14:06:46;23.83;;;10.48;;
20026;SDS011;10174;42.688;23.344;2022-09-09T14:09:13;21.08;;;10.50;;
20026;SDS011;10174;42.688;23.344;2022-09-09T14:11:40;27.92;;;10.23;;
20026;SDS011;10174;42.688;23.344;2022-09-09T14:14:06;24.63;;;10.00;;
20026;SDS011;10174;42.688;23.344;2022-09-09T14:16:31;33.88;;;19.83;;
20026;SDS011;10174;42.688;23.344;2022-09-09T14:18:57;22.85;;;13.68;;
20026;SDS011;10174;42.688;23.344;2022-09-09T14:21:24;29.63;;;14.85;;
20026;SDS011;10174;42.688;23.344;2022-09-09T14:23:50;19.25;;;9.77;;
20026;SDS011;10174;42.688;23.344;2022-09-09T14:26:17;19.75;;;9.73;;
20026;SDS011;10174;42.688;23.344;2022-09-09T14:28:44;18.52;;;9.40;;
20026;SDS011;10174;42.688;23.344;2022-09-09T14:31:10;27.00;;;10.05;;
20026;SDS011;10174;42.688;23.344;2022-09-09T14:33:35;18.13;;;9.00;;
20026;SDS011;10174;42.688;23.344;2022-09-09T14:36:01;22.10;;;12.43;;
20026;SDS011;10174;42.688;23.344;2022-09-09T14:38:29;24.15;;;11.02;;
20026;SDS011;10174;42.688;23.344;2022-09-09T14:41:00;20.77;;;9.77;;
20026;SDS011;10174;42.688;23.344;2022-09-09T14:43:28;24.67;;;9.65;;
20026;SDS011;10174;42.688;23.344;2022-09-09T14:45:56;23.95;;;10.70;;
20026;SDS011;10174;42.688;23.344;2022-09-09T14:48:21;20.85;;;10.98;;
20026;SDS011;10174;42.688;23.344;2022-09-09T14:50:47;20.35;;;10.73;;
20026;SDS011;10174;42.688;23.344;2022-09-09T14:53:14;23.10;;;9.32;;
20026;SDS011;10174;42.688;23.344;2022-09-09T14:55:41;30.42;;;11.10;;
20026;SDS011;10174;42.688;23.344;2022-09-09T14:58:07;26.30;;;10.85;;
20026;SDS011;10174;42.688;23.344;2022-09-09T15:00:32;25.20;;;9.48;;
20026;SDS011;10174;42.688;23.344;2022-09-09T15:02:59;21.58;;;9.30;;
20026;SDS011;10174;42.688;23.344;2022-09-09T15:05:24;27.92;;;9.60;;
20026;SDS011;10174;42.688;23.344;2022-09-09T15:07:50;27.02;;;10.95;;
20026;SDS011;10174;42.688;23.344;2022-09-09T15:10:15;33.15;;;13.93;;
20026;SDS011;10174;42.688;23.344;2022-09-09T15:12:42;28.00;;;14.57;;
20026;SDS011;10174;42.688;23.344;2022-09-09T15:15:08;41.75;;;17.65;;
20026;SDS011;10174;42.688;23.344;2022-09-09T15:17:34;49.25;;;18.88;;
20026;SDS011;10174;42.688;23.344;2022-09-09T15:20:01;69.00;;;28.00;;
20026;SDS011;10174;42.688;23.344;2022-09-09T15:22:27;74.47;;;33.10;;
20026;SDS011;10174;42.688;23.344;2022-09-09T15:24:53;62.25;;;28.73;;
20026;SDS011;10174;42.688;23.344;2022-09-09T15:27:18;53.63;;;26.63;;
20026;SDS011;10174;42.688;23.344;2022-09-09T15:29:44;46.75;;;22.50;;
20026;SDS011;10174;42.688;23.344;2022-09-09T15:32:10;54.47;;;24.10;;
20026;SDS011;10174;42.688;23.344;2022-09-09T15:34:35;43.13;;;18.42;;
20026;SDS011;10174;42.688;23.344;2022-09-09T15:37:00;45.00;;;18.38;;
20026;SDS011;10174;42.688;23.344;2022-09-09T15:39:26;45.13;;;19.20;;
20026;SDS011;10174;42.688;23.344;2022-09-09T15:41:52;53.05;;;20.13;;
20026;SDS011;10174;42.688;23.344;2022-09-09T15:44:18;50.50;;;18.92;;
20026;SDS011;10174;42.688;23.344;2022-09-09T15:46:50;41.22;;;17.05;;
20026;SDS011;10174;42.688;23.344;2022-09-09T15:49:24;42.45;;;18.58;;
20026;SDS011;10174;42.688;23.344;2022-09-09T15:51:57;47.70;;;18.92;;
20026;SDS011;10174;42.688;23.344;2022-09-09T15:54:24;45.60;;;16.92;;
20026;SDS011;10174;42.688;23.344;2022-09-09T15:56:54;80.82;;;40.20;;
20026;SDS011;10174;42.688;23.344;2022-09-09T15:59:26;50.15;;;17.67;;
20026;SDS011;10174;42.688;23.344;2022-09-09T16:01:52;54.85;;;22.73;;
20026;SDS011;10174;42.688;23.344;2022-09-09T16:04:19;39.53;;;17.40;;
20026;SDS011;10174;42.688;23.344;2022-09-09T16:06:52;36.50;;;16.40;;
20026;SDS011;10174;42.688;23.344;2022-09-09T16:09:23;40.15;;;15.32;;
20026;SDS011;10174;42.688;23.344;2022-09-09T16:11:49;41.53;;;17.08;;
20026;SDS011;10174;42.688;23.344;2022-09-09T16:14:16;44.58;;;17.00;;
20026;SDS011;10174;42.688;23.344;2022-09-09T16:16:42;40.20;;;18.88;;
20026;SDS011;10174;42.688;23.344;2022-09-09T16:19:09;46.67;;;18.05;;
20026;SDS011;10174;42.688;23.344;2022-09-09T16:21:38;44.75;;;17.60;;
20026;SDS011;10174;42.688;23.344;2022-09-09T16:24:05;39.25;;;17.45;;
20026;SDS011;10174;42.688;23.344;2022-09-09T16:26:33;47.67;;;18.60;;
20026;SDS011;10174;42.688;23.344;2022-09-09T16:29:00;42.60;;;16.35;;
20026;SDS011;10174;42.688;23.344;2022-09-09T16:31:26;40.38;;;17.38;;
20026;SDS011;10174;42.688;23.344;2022-09-09T16:33:52;48.25;;;17.13;;
20026;SDS011;10174;42.688;23.344;2022-09-09T16:38:45;44.78;;;17.33;;
20026;SDS011;10174;42.688;23.344;2022-09-09T16:41:11;34.70;;;14.98;;
20026;SDS011;10174;42.688;23.344;2022-09-09T16:43:38;33.00;;;15.45;;
20026;SDS011;10174;42.688;23.344;2022-09-09T16:46:15;45.38;;;19.65;;
20026;SDS011;10174;42.688;23.344;2022-09-09T16:48:43;49.97;;;23.42;;
20026;SDS011;10174;42.688;23.344;2022-09-09T16:51:17;51.85;;;24.90;;
20026;SDS011;10174;42.688;23.344;2022-09-09T16:53:44;53.10;;;25.02;;
20026;SDS011;10174;42.688;23.344;2022-09-09T16:56:11;55.15;;;22.00;;
20026;SDS011;10174;42.688;23.344;2022-09-09T16:58:42;43.70;;;16.15;;
20026;SDS011;10174;42.688;23.344;2022-09-09T17:01:08;50.40;;;20.85;;
20026;SDS011;10174;42.688;23.344;2022-09-09T17:03:36;40.67;;;17.15;;
20026;SDS011;10174;42.688;23.344;2022-09-09T17:06:02;37.15;;;16.92;;
20026;SDS011;10174;42.688;23.344;2022-09-09T17:08:31;40.38;;;18.58;;
20026;SDS011;10174;42.688;23.344;2022-09-09T17:10:58;40.58;;;18.73;;
20026;SDS011;10174;42.688;23.344;2022-09-09T17:13:24;42.67;;;20.05;;
20026;SDS011;10174;42.688;23.344;2022-09-09T17:15:50;55.47;;;22.48;;
20026;SDS011;10174;42.688;23.344;2022-09-09T17:18:16;55.42;;;24.38;;
20026;SDS011;10174;42.688;23.344;2022-09-09T17:20:42;34.80;;;18.15;;